Time;durP1;ratioP1;P1;durP2;ratioP2;P2;SDS_P1;SDS_P2;PMS_P1;PMS_P2;Temp;Humidity;BMP_temperature;BMP_pressure;BME280_temperature;BME280_humidity;BME280_pressure;Samples;Min_cycle;Max_cycle;Signal;HPM_P1;HPM_P2
2021/12/15 00:01:25;;;;;;;;;;;15.20;63.10;;;;;;6218489;23;20239;-90
2021/12/15 00:03:50;;;;;;;;;;;15.20;63.10;;;;;;6192569;23;20305;-89
2021/12/15 00:06:18;;;;;;;;;;;15.20;63.20;;;;;;6192324;23;19964;-90
2021/12/15 00:08:46;;;;;;;;;;;15.10;63.10;;;;;;6218057;23;20379;-90
2021/12/15 00:11:12;;;;;;;;;;;15.10;63.20;;;;;;6191962;23;20290;-90
2021/12/15 00:13:41;;;;;;;;;;;15.20;63.20;;;;;;6191951;23;19918;-90
2021/12/15 00:16:08;;;;;;;;;;;15.20;63.20;;;;;;6218567;23;19911;-90
2021/12/15 00:18:34;;;;;;;;;;;15.20;63.20;;;;;;6193134;23;20267;-90
2021/12/15 00:21:00;;;;;;;;;;;15.20;63.10;;;;;;6219171;23;19907;-90
2021/12/15 00:23:26;;;;;;;;;;;15.10;63.10;;;;;;6220306;23;20316;-90
2021/12/15 00:25:52;;;;;;;;;;;15.20;63.20;;;;;;6220004;23;19903;-91
2021/12/15 00:28:17;;;;;;;;;;;15.20;63.20;;;;;;6193241;23;20008;-90
2021/12/15 00:30:43;;;;;;;;;;;15.20;63.20;;;;;;6219846;23;19907;-90
2021/12/15 00:33:09;;;;;;;;;;;15.20;63.20;;;;;;6219320;23;19912;-91
2021/12/15 00:35:36;;;;;;;;;;;15.20;63.30;;;;;;6217815;23;20218;-90
2021/12/15 00:38:02;;;;;;;;;;;15.20;63.30;;;;;;6218732;23;19931;-90
2021/12/15 00:40:28;;;;;;;;;;;15.20;63.30;;;;;;6218766;23;19960;-89
2021/12/15 00:42:54;;;;;;;;;;;15.20;63.40;;;;;;6218598;23;19908;-90
2021/12/15 00:45:19;;;;;;;;;;;15.20;63.40;;;;;;6191395;23;19920;-90
2021/12/15 00:47:45;;;;;;;;;;;15.20;63.50;;;;;;6218776;23;19908;-91
2021/12/15 00:50:13;;;;;;;;;;;15.20;63.40;;;;;;6219195;23;19904;-90
2021/12/15 00:52:40;;;;;;;;;;;15.20;63.40;;;;;;6219124;23;19915;-90
2021/12/15 00:55:07;;;;;;;;;;;15.20;63.50;;;;;;6219251;23;19931;-91
2021/12/15 00:57:33;;;;;;;;;;;15.20;63.50;;;;;;6192366;23;19908;-91
2021/12/15 00:59:59;;;;;;;;;;;15.20;63.60;;;;;;6193419;23;19915;-90
2021/12/15 01:02:24;;;;;;;;;;;15.10;63.60;;;;;;6219630;23;19908;-90
2021/12/15 01:04:50;;;;;;;;;;;15.20;63.70;;;;;;6193011;23;19919;-90
2021/12/15 01:07:15;;;;;;;;;;;15.20;63.70;;;;;;6219259;23;19904;-89
2021/12/15 01:09:48;;;;;;;;;;;15.20;63.60;;;;;;6219413;23;19915;-90
2021/12/15 01:20:31;;;;;;;;;;;15.20;63.50;;;;;;6219861;23;19915;-90
2021/12/15 01:22:59;;;;;;;;;;;15.20;63.50;;;;;;6193793;23;19912;-90
2021/12/15 01:25:24;;;;;;;;;;;15.20;63.60;;;;;;6194171;23;19912;-90
2021/12/15 01:27:51;;;;;;;;;;;15.20;63.60;;;;;;6194212;23;19911;-91
2021/12/15 01:30:19;;;;;;;;;;;15.20;63.60;;;;;;6193233;23;19938;-90
2021/12/15 01:32:44;;;;;;;;;;;15.20;63.60;;;;;;6193897;23;19900;-91
2021/12/15 01:35:10;;;;;;;;;;;15.20;63.60;;;;;;6220871;23;20324;-90
2021/12/15 01:37:36;;;;;;;;;;;15.20;63.60;;;;;;6194356;23;19935;-90
2021/12/15 01:40:03;;;;;;;;;;;15.20;63.70;;;;;;6220264;23;19916;-91
2021/12/15 01:42:31;;;;;;;;;;;15.20;63.80;;;;;;6193469;23;20333;-91
2021/12/15 01:47:41;;;;;;;;;;;15.30;63.60;;;;;;6197928;23;20224;-90
2021/12/15 01:50:07;;;;;;;;;;;15.30;63.60;;;;;;6221621;23;19908;-91
2021/12/15 01:52:34;;;;;;;;;;;15.30;63.70;;;;;;6219208;23;19908;-90
2021/12/15 01:55:05;;;;;;;;;;;15.30;63.70;;;;;;6194997;23;19912;-90
2021/12/15 01:57:31;;;;;;;;;;;15.30;63.60;;;;;;6220987;23;19912;-91
2021/12/15 01:59:57;;;;;;;;;;;15.30;63.70;;;;;;6221531;23;19908;-90
2021/12/15 02:02:23;;;;;;;;;;;15.30;63.80;;;;;;6197058;23;19965;-90
2021/12/15 02:04:50;;;;;;;;;;;15.30;63.80;;;;;;6223072;23;19916;-92
2021/12/15 02:07:18;;;;;;;;;;;15.30;63.80;;;;;;6222503;23;19904;-91
2021/12/15 02:10:01;;;;;;;;;;;15.30;63.80;;;;;;6197983;23;20359;-91
2021/12/15 02:12:32;;;;;;;;;;;15.30;63.90;;;;;;6197571;23;20380;-93
2021/12/15 02:14:58;;;;;;;;;;;15.30;63.80;;;;;;6199941;23;19908;-92
2021/12/15 02:17:24;;;;;;;;;;;15.30;63.90;;;;;;6198266;23;19912;-92
2021/12/15 02:19:50;;;;;;;;;;;15.30;63.90;;;;;;6222700;23;19908;-91
2021/12/15 02:22:15;;;;;;;;;;;15.30;63.90;;;;;;6198303;23;19919;-91
2021/12/15 02:24:42;;;;;;;;;;;15.30;64.10;;;;;;6197388;23;20313;-90
2021/12/15 02:27:11;;;;;;;;;;;15.30;64.20;;;;;;6197623;23;19916;-91
2021/12/15 02:29:41;;;;;;;;;;;15.30;64.10;;;;;;6199083;23;20284;-92
2021/12/15 02:32:17;;;;;;;;;;;15.30;64.00;;;;;;6226676;23;19947;-92
2021/12/15 02:37:19;;;;;;;;;;;15.30;64.00;;;;;;6226664;23;19923;-92
2021/12/15 02:40:05;;;;;;;;;;;15.40;64.00;;;;;;6225591;23;19912;-92
2021/12/15 02:42:33;;;;;;;;;;;15.30;64.00;;;;;;6224328;23;19908;-91
2021/12/15 02:47:26;;;;;;;;;;;15.40;63.80;;;;;;6225530;23;19912;-91
2021/12/15 02:49:53;;;;;;;;;;;15.40;63.80;;;;;;6225371;23;19908;-90
2021/12/15 02:52:18;;;;;;;;;;;15.40;63.80;;;;;;6224334;23;19960;-92
2021/12/15 02:54:44;;;;;;;;;;;15.40;63.80;;;;;;6198923;23;19916;-92
2021/12/15 02:57:10;;;;;;;;;;;15.40;63.80;;;;;;6225469;23;20525;-91
2021/12/15 02:59:44;;;;;;;;;;;15.40;63.80;;;;;;6198536;23;20244;-91
2021/12/15 03:07:16;;;;;;;;;;;15.40;63.80;;;;;;6230696;23;19908;-91
2021/12/15 03:15:29;;;;;;;;;;;15.40;63.90;;;;;;6227162;23;19919;-91
2021/12/15 03:17:56;;;;;;;;;;;15.30;64.00;;;;;;6199753;23;19951;-92
2021/12/15 03:20:22;;;;;;;;;;;15.30;63.90;;;;;;6199658;23;19924;-91
2021/12/15 03:22:50;;;;;;;;;;;15.30;63.90;;;;;;6200167;23;19934;-92
2021/12/15 03:25:16;;;;;;;;;;;15.40;63.90;;;;;;6199052;23;19912;-91
2021/12/15 03:36:06;;;;;;;;;;;15.30;64.20;;;;;;6225821;23;19932;-92
2021/12/15 03:38:33;;;;;;;;;;;15.30;64.20;;;;;;6197618;23;19967;-91
2021/12/15 03:40:58;;;;;;;;;;;15.30;64.10;;;;;;6199109;23;20301;-90
2021/12/15 03:43:24;;;;;;;;;;;15.30;64.00;;;;;;6223218;23;19915;-90
2021/12/15 03:45:51;;;;;;;;;;;15.40;64.10;;;;;;6198191;23;19939;-89
2021/12/15 03:48:19;;;;;;;;;;;15.30;64.00;;;;;;6199624;23;19914;-91
2021/12/15 03:50:44;;;;;;;;;;;15.30;64.00;;;;;;6202970;23;19916;-91
2021/12/15 03:53:11;;;;;;;;;;;15.40;63.90;;;;;;6224288;23;20328;-91
2021/12/15 03:55:37;;;;;;;;;;;15.30;63.80;;;;;;6223569;23;19912;-90
2021/12/15 03:58:07;;;;;;;;;;;15.40;63.90;;;;;;6199210;23;19911;-91
2021/12/15 04:00:33;;;;;;;;;;;15.40;63.80;;;;;;6225258;23;19916;-92
2021/12/15 04:02:59;;;;;;;;;;;15.40;63.80;;;;;;6223470;23;19994;-90
2021/12/15 04:05:24;;;;;;;;;;;15.40;63.80;;;;;;6201852;23;19911;-91
2021/12/15 04:07:50;;;;;;;;;;;15.40;63.70;;;;;;6225794;23;19908;-91
2021/12/15 04:10:17;;;;;;;;;;;15.40;63.70;;;;;;6196465;23;19912;-92
2021/12/15 04:12:43;;;;;;;;;;;15.40;63.60;;;;;;6194655;23;19931;-91
2021/12/15 04:17:52;;;;;;;;;;;15.40;63.60;;;;;;6223236;23;19915;-91
2021/12/15 04:20:20;;;;;;;;;;;15.40;63.70;;;;;;6218240;23;19912;-91
2021/12/15 04:22:46;;;;;;;;;;;15.40;63.70;;;;;;6219904;23;19912;-92
2021/12/15 04:25:15;;;;;;;;;;;15.50;63.80;;;;;;6193502;23;19930;-91
2021/12/15 04:27:49;;;;;;;;;;;15.50;63.70;;;;;;6192962;23;19927;-90
2021/12/15 04:30:15;;;;;;;;;;;15.50;63.70;;;;;;6192098;23;19908;-91
2021/12/15 04:32:44;;;;;;;;;;;15.50;63.60;;;;;;6217202;23;19958;-91
2021/12/15 04:35:10;;;;;;;;;;;15.50;63.50;;;;;;6192918;23;19908;-91
2021/12/15 04:37:36;;;;;;;;;;;15.50;63.50;;;;;;6218402;23;19959;-91
2021/12/15 04:40:04;;;;;;;;;;;15.50;63.40;;;;;;6193075;23;20576;-92
2021/12/15 04:42:29;;;;;;;;;;;15.50;63.40;;;;;;6220396;23;19908;-91
2021/12/15 04:44:56;;;;;;;;;;;15.50;63.40;;;;;;6193485;23;20213;-90
2021/12/15 04:47:22;;;;;;;;;;;15.40;63.40;;;;;;6193175;23;19939;-91
2021/12/15 04:49:50;;;;;;;;;;;15.50;63.40;;;;;;6219446;23;19908;-90
2021/12/15 04:52:17;;;;;;;;;;;15.50;63.50;;;;;;6217449;23;19942;-90
2021/12/15 04:54:43;;;;;;;;;;;15.50;63.40;;;;;;6219168;23;19938;-90
2021/12/15 04:57:09;;;;;;;;;;;15.40;63.50;;;;;;6218870;23;19960;-90
2021/12/15 04:59:35;;;;;;;;;;;15.50;63.40;;;;;;6219716;23;19947;-90
2021/12/15 05:02:01;;;;;;;;;;;15.40;63.40;;;;;;6217087;23;19923;-91
2021/12/15 05:04:27;;;;;;;;;;;15.50;63.40;;;;;;6192629;23;19904;-91
2021/12/15 05:06:52;;;;;;;;;;;15.50;63.40;;;;;;6192523;23;19912;-90
2021/12/15 05:09:18;;;;;;;;;;;15.50;63.40;;;;;;6217745;23;19995;-91
2021/12/15 05:11:47;;;;;;;;;;;15.40;63.50;;;;;;6217218;23;19920;-91
2021/12/15 05:14:13;;;;;;;;;;;15.50;63.40;;;;;;6191963;23;19908;-91
2021/12/15 05:16:38;;;;;;;;;;;15.40;63.40;;;;;;6218417;23;19912;-90
2021/12/15 05:19:04;;;;;;;;;;;15.40;63.50;;;;;;6191780;23;19962;-90
2021/12/15 05:21:30;;;;;;;;;;;15.40;63.40;;;;;;6218623;23;19967;-90
2021/12/15 05:24:00;;;;;;;;;;;15.40;63.50;;;;;;6219310;23;20475;-91
2021/12/15 05:26:25;;;;;;;;;;;15.30;63.50;;;;;;6192096;23;19912;-91
2021/12/15 05:28:51;;;;;;;;;;;15.30;63.50;;;;;;6219548;23;19904;-91
2021/12/15 05:31:17;;;;;;;;;;;15.30;63.50;;;;;;6191523;23;20043;-90
2021/12/15 05:33:42;;;;;;;;;;;15.30;63.60;;;;;;6218027;23;19912;-91
2021/12/15 05:36:08;;;;;;;;;;;15.30;63.60;;;;;;6218590;23;19911;-90
2021/12/15 05:38:33;;;;;;;;;;;15.20;63.60;;;;;;6218247;23;19920;-91
2021/12/15 05:40:59;;;;;;;;;;;15.10;63.60;;;;;;6190803;23;19916;-91
2021/12/15 05:43:25;;;;;;;;;;;15.00;63.80;;;;;;6192938;23;19930;-90
2021/12/15 05:45:51;;;;;;;;;;;15.00;63.90;;;;;;6192802;23;19908;-90
2021/12/15 05:48:17;;;;;;;;;;;14.90;63.90;;;;;;6216890;23;19912;-90
2021/12/15 05:50:43;;;;;;;;;;;15.00;64.10;;;;;;6191585;23;19912;-91
2021/12/15 05:53:09;;;;;;;;;;;14.90;64.10;;;;;;6191546;23;19904;-91
2021/12/15 05:55:37;;;;;;;;;;;14.90;64.10;;;;;;6218490;23;19908;-90
2021/12/15 05:58:04;;;;;;;;;;;14.90;64.10;;;;;;6217760;23;20224;-91
2021/12/15 06:00:32;;;;;;;;;;;15.00;64.20;;;;;;6218769;23;19912;-91
2021/12/15 06:02:57;;;;;;;;;;;15.10;64.10;;;;;;6192836;23;19954;-91
2021/12/15 06:05:23;;;;;;;;;;;15.00;64.00;;;;;;6195650;23;19912;-90
2021/12/15 06:07:49;;;;;;;;;;;15.10;64.00;;;;;;6222339;23;19908;-90
2021/12/15 06:10:18;;;;;;;;;;;15.10;64.00;;;;;;6220889;23;19908;-90
2021/12/15 06:12:47;;;;;;;;;;;15.10;64.00;;;;;;6221864;23;20016;-92
2021/12/15 06:15:12;;;;;;;;;;;15.10;64.10;;;;;;6195552;23;19908;-90
2021/12/15 06:17:37;;;;;;;;;;;15.10;64.10;;;;;;6221731;23;19966;-90
2021/12/15 06:20:04;;;;;;;;;;;15.10;64.00;;;;;;6222268;23;19967;-90
2021/12/15 06:22:31;;;;;;;;;;;15.10;64.00;;;;;;6195274;23;20294;-90
2021/12/15 06:24:57;;;;;;;;;;;15.10;64.00;;;;;;6222914;23;19911;-90
2021/12/15 06:27:23;;;;;;;;;;;15.10;64.10;;;;;;6196394;23;19919;-90
2021/12/15 06:29:49;;;;;;;;;;;15.00;64.10;;;;;;6196076;23;19908;-90
2021/12/15 06:32:15;;;;;;;;;;;15.00;64.20;;;;;;6223478;23;19986;-90
2021/12/15 06:34:40;;;;;;;;;;;15.00;64.30;;;;;;6197052;23;19960;-91
2021/12/15 06:37:06;;;;;;;;;;;15.00;64.30;;;;;;6197588;23;19914;-90
2021/12/15 06:39:32;;;;;;;;;;;15.00;64.40;;;;;;6197241;23;19916;-91
2021/12/15 06:41:58;;;;;;;;;;;15.00;64.40;;;;;;6197611;23;19947;-90
2021/12/15 06:44:23;;;;;;;;;;;15.00;64.50;;;;;;6196927;23;19916;-91
2021/12/15 06:47:18;;;;;;;;;;;15.00;64.40;;;;;;6196783;23;19904;-90
2021/12/15 07:00:28;;;;;;;;;;;14.90;64.50;;;;;;6212837;23;20295;-91
2021/12/15 07:02:55;;;;;;;;;;;15.00;64.50;;;;;;6198206;23;19926;-91
2021/12/15 07:05:21;;;;;;;;;;;14.90;64.60;;;;;;6225183;23;19962;-92
2021/12/15 07:07:47;;;;;;;;;;;15.00;64.50;;;;;;6226116;23;20364;-91
2021/12/15 07:10:14;;;;;;;;;;;14.90;64.60;;;;;;6225943;23;19958;-91
2021/12/15 07:12:39;;;;;;;;;;;15.00;64.60;;;;;;6199383;23;20047;-91
2021/12/15 07:15:06;;;;;;;;;;;15.00;64.60;;;;;;6199983;23;19916;-92
2021/12/15 07:17:32;;;;;;;;;;;15.00;64.80;;;;;;6197476;23;19911;-92
2021/12/15 07:22:32;;;;;;;;;;;15.00;64.90;;;;;;6224214;23;19908;-92
2021/12/15 07:24:59;;;;;;;;;;;15.00;64.90;;;;;;6224724;23;20282;-93
2021/12/15 07:27:24;;;;;;;;;;;15.00;64.90;;;;;;6198757;23;19908;-92
2021/12/15 07:29:50;;;;;;;;;;;15.10;65.00;;;;;;6197375;23;20284;-93
2021/12/15 07:32:15;;;;;;;;;;;15.10;65.00;;;;;;6224091;23;20356;-92
2021/12/15 07:34:43;;;;;;;;;;;15.10;65.00;;;;;;6197245;23;21288;-92
2021/12/15 07:37:08;;;;;;;;;;;15.10;64.90;;;;;;6198207;23;19908;-93
2021/12/15 07:39:36;;;;;;;;;;;15.10;65.00;;;;;;6198409;23;19966;-92
2021/12/15 07:42:06;;;;;;;;;;;15.10;64.90;;;;;;6223817;23;19908;-92
2021/12/15 07:44:32;;;;;;;;;;;15.10;65.00;;;;;;6197477;23;20419;-91
2021/12/15 07:46:57;;;;;;;;;;;15.10;65.00;;;;;;6223506;23;19954;-92
2021/12/15 07:49:24;;;;;;;;;;;15.10;65.10;;;;;;6197236;23;19952;-92
2021/12/15 07:51:58;;;;;;;;;;;15.10;65.10;;;;;;6197364;23;19904;-92
2021/12/15 07:54:24;;;;;;;;;;;15.10;65.10;;;;;;6197900;23;19920;-93
2021/12/15 07:56:49;;;;;;;;;;;15.10;65.10;;;;;;6197137;23;20380;-93
2021/12/15 07:59:15;;;;;;;;;;;15.20;65.20;;;;;;6197152;23;20224;-92
2021/12/15 08:01:40;;;;;;;;;;;15.20;65.10;;;;;;6197598;23;19919;-92
2021/12/15 08:04:06;;;;;;;;;;;15.20;65.10;;;;;;6197946;23;19908;-90
2021/12/15 08:06:31;;;;;;;;;;;15.20;65.10;;;;;;6197251;23;19912;-92
2021/12/15 08:08:57;;;;;;;;;;;15.20;65.10;;;;;;6198099;23;19908;-92
2021/12/15 08:11:22;;;;;;;;;;;15.20;65.20;;;;;;6224450;23;19912;-92
2021/12/15 08:13:48;;;;;;;;;;;15.20;65.20;;;;;;6197429;23;19919;-92
2021/12/15 08:16:14;;;;;;;;;;;15.20;65.20;;;;;;6198068;23;19915;-92
2021/12/15 08:18:41;;;;;;;;;;;15.20;65.10;;;;;;6197189;23;19939;-91
2021/12/15 08:21:06;;;;;;;;;;;15.20;65.10;;;;;;6198674;23;19908;-94
2021/12/15 08:23:32;;;;;;;;;;;15.30;65.10;;;;;;6197531;23;19927;-92
2021/12/15 08:25:59;;;;;;;;;;;15.30;65.10;;;;;;6224023;23;19952;-93
2021/12/15 08:28:24;;;;;;;;;;;15.30;65.10;;;;;;6196660;23;19915;-92
2021/12/15 08:30:50;;;;;;;;;;;15.30;65.10;;;;;;6224197;23;20379;-93
2021/12/15 08:33:18;;;;;;;;;;;15.30;65.20;;;;;;6197309;23;19907;-92
2021/12/15 08:35:46;;;;;;;;;;;15.30;65.10;;;;;;6197528;23;19911;-91
2021/12/15 08:38:12;;;;;;;;;;;15.40;65.20;;;;;;6197221;23;20282;-92
2021/12/15 08:40:38;;;;;;;;;;;15.40;65.20;;;;;;6197077;23;19911;-92
2021/12/15 08:43:06;;;;;;;;;;;15.40;65.00;;;;;;6196375;23;19918;-92
2021/12/15 08:45:33;;;;;;;;;;;15.40;65.10;;;;;;6196962;23;19908;-92
2021/12/15 08:47:58;;;;;;;;;;;15.40;65.20;;;;;;6196815;23;19912;-92
2021/12/15 08:50:29;;;;;;;;;;;15.40;65.10;;;;;;6196129;23;19969;-92
2021/12/15 08:52:55;;;;;;;;;;;15.40;65.20;;;;;;6196330;23;19916;-92
2021/12/15 08:55:20;;;;;;;;;;;15.40;65.10;;;;;;6196597;23;19915;-92
2021/12/15 08:57:49;;;;;;;;;;;15.40;65.10;;;;;;6221564;23;19912;-92
2021/12/15 09:00:16;;;;;;;;;;;15.40;65.10;;;;;;6196877;23;19916;-93
2021/12/15 09:02:41;;;;;;;;;;;15.40;65.10;;;;;;6222044;23;19911;-91
2021/12/15 09:05:07;;;;;;;;;;;15.40;65.20;;;;;;6223206;23;19914;-91
2021/12/15 09:07:32;;;;;;;;;;;15.40;65.30;;;;;;6195797;23;19928;-92
2021/12/15 09:09:58;;;;;;;;;;;15.50;65.30;;;;;;6223805;23;19912;-92
2021/12/15 09:12:23;;;;;;;;;;;15.50;65.30;;;;;;6223514;23;19919;-91
2021/12/15 09:14:49;;;;;;;;;;;15.50;65.30;;;;;;6223085;23;19908;-92
2021/12/15 09:17:14;;;;;;;;;;;15.50;65.20;;;;;;6196806;23;19987;-93
2021/12/15 09:19:40;;;;;;;;;;;15.50;65.30;;;;;;6223389;23;19971;-92
2021/12/15 09:22:06;;;;;;;;;;;15.50;65.40;;;;;;6196901;23;19986;-92
2021/12/15 09:24:31;;;;;;;;;;;15.60;65.30;;;;;;6196715;23;19919;-95
2021/12/15 09:26:57;;;;;;;;;;;15.60;65.20;;;;;;6196004;23;19908;-94
2021/12/15 09:29:23;;;;;;;;;;;15.60;65.20;;;;;;6196988;23;19915;-93
2021/12/15 09:31:49;;;;;;;;;;;15.60;65.10;;;;;;6196625;23;19908;-92
2021/12/15 09:34:18;;;;;;;;;;;15.60;65.10;;;;;;6222024;23;19922;-91
2021/12/15 09:36:51;;;;;;;;;;;15.60;65.20;;;;;;6223097;23;19916;-91
2021/12/15 09:39:17;;;;;;;;;;;15.60;65.20;;;;;;6223467;23;19912;-90
2021/12/15 09:41:43;;;;;;;;;;;15.60;65.30;;;;;;6223342;23;19915;-93
2021/12/15 09:44:12;;;;;;;;;;;15.70;65.40;;;;;;6195154;23;19908;-92
2021/12/15 10:03:12;;;;;;;;;;;15.70;65.20;;;;;;6221068;23;20274;-92
2021/12/15 10:11:41;;;;;;;;;;;15.70;65.10;;;;;;6223085;23;19915;-91
2021/12/15 10:19:56;;;;;;;;;;;15.70;65.30;;;;;;6161282;23;19928;-90
2021/12/15 10:22:38;;;;;;;;;;;15.80;65.30;;;;;;6198429;23;19911;-92
2021/12/15 10:25:07;;;;;;;;;;;15.80;65.30;;;;;;6197063;23;20574;-91
2021/12/15 10:27:32;;;;;;;;;;;15.80;65.10;;;;;;6221784;23;19939;-91
2021/12/15 10:30:04;;;;;;;;;;;15.90;65.00;;;;;;6223019;23;19904;-91
2021/12/15 10:32:31;;;;;;;;;;;15.90;65.10;;;;;;6196846;23;19908;-92
2021/12/15 10:35:03;;;;;;;;;;;15.90;65.10;;;;;;6196203;23;19940;-91
2021/12/15 10:37:28;;;;;;;;;;;16.00;65.20;;;;;;6222272;23;19916;-90
2021/12/15 10:40:07;;;;;;;;;;;16.00;65.10;;;;;;6221541;23;19908;-91
2021/12/15 10:42:33;;;;;;;;;;;16.10;65.10;;;;;;6195743;23;19908;-91
2021/12/15 10:45:03;;;;;;;;;;;16.20;65.30;;;;;;6222725;23;20339;-91
2021/12/15 10:47:29;;;;;;;;;;;16.20;65.30;;;;;;6222389;23;19900;-91
2021/12/15 10:49:54;;;;;;;;;;;16.20;65.40;;;;;;6196018;23;19908;-90
2021/12/15 10:52:20;;;;;;;;;;;16.30;65.20;;;;;;6221584;23;19908;-91
2021/12/15 10:54:49;;;;;;;;;;;16.30;65.00;;;;;;6197656;23;19990;-90
2021/12/15 10:57:44;;;;;;;;;;;16.40;65.00;;;;;;6197313;23;19923;-91
2021/12/15 11:00:11;;;;;;;;;;;16.40;65.00;;;;;;6217086;23;20083;-91
2021/12/15 11:02:37;;;;;;;;;;;16.40;64.90;;;;;;6196823;23;19914;-91
2021/12/15 11:05:06;;;;;;;;;;;16.40;64.90;;;;;;6197044;23;20329;-90
2021/12/15 11:07:34;;;;;;;;;;;16.40;64.90;;;;;;6198520;23;19904;-91
2021/12/15 11:10:10;;;;;;;;;;;16.50;64.90;;;;;;6223771;23;19908;-91
2021/12/15 11:12:43;;;;;;;;;;;16.50;64.70;;;;;;6197254;23;19908;-91
2021/12/15 11:15:22;;;;;;;;;;;16.50;64.80;;;;;;6197369;23;19944;-91
2021/12/15 11:17:51;;;;;;;;;;;16.50;64.80;;;;;;6196879;23;19903;-91
2021/12/15 11:20:16;;;;;;;;;;;16.50;64.70;;;;;;6195921;23;19950;-90
2021/12/15 11:22:49;;;;;;;;;;;16.50;64.70;;;;;;6194066;23;19912;-92
2021/12/15 11:25:33;;;;;;;;;;;16.50;64.60;;;;;;6221621;23;19943;-91
2021/12/15 11:28:16;;;;;;;;;;;16.50;64.60;;;;;;6221582;23;20306;-91
2021/12/15 11:30:46;;;;;;;;;;;16.50;64.60;;;;;;6194806;23;19908;-91
2021/12/15 11:33:37;;;;;;;;;;;16.60;64.70;;;;;;6194942;23;19939;-91
2021/12/15 11:36:07;;;;;;;;;;;16.60;64.60;;;;;;6202490;23;20226;-92
2021/12/15 11:38:36;;;;;;;;;;;16.60;64.50;;;;;;6194675;23;19904;-91
2021/12/15 11:41:10;;;;;;;;;;;16.70;64.50;;;;;;6194896;23;19908;-91
2021/12/15 11:43:42;;;;;;;;;;;16.70;64.60;;;;;;6194366;23;19904;-91
2021/12/15 11:46:16;;;;;;;;;;;16.70;64.50;;;;;;6221297;23;19983;-90
2021/12/15 11:48:41;;;;;;;;;;;16.70;64.40;;;;;;6219818;23;20298;-92
2021/12/15 11:53:32;;;;;;;;;;;16.70;64.50;;;;;;6221231;23;19963;-91
2021/12/15 11:56:18;;;;;;;;;;;16.80;64.50;;;;;;6220482;23;19915;-90
2021/12/15 11:58:44;;;;;;;;;;;16.80;64.60;;;;;;6194161;23;19916;-92
2021/12/15 12:01:10;;;;;;;;;;;16.80;64.80;;;;;;6220983;23;19904;-91
2021/12/15 12:03:36;;;;;;;;;;;16.90;64.80;;;;;;6220560;23;19963;-92
2021/12/15 12:06:02;;;;;;;;;;;16.90;64.70;;;;;;6193669;23;19904;-90
2021/12/15 12:08:28;;;;;;;;;;;17.00;64.60;;;;;;6194021;23;19915;-91
2021/12/15 12:11:05;;;;;;;;;;;17.00;64.50;;;;;;6194400;23;19912;-92
2021/12/15 12:13:38;;;;;;;;;;;17.00;64.40;;;;;;6191553;23;19916;-92
2021/12/15 12:16:05;;;;;;;;;;;17.00;64.20;;;;;;6193432;23;19907;-91
2021/12/15 12:18:31;;;;;;;;;;;17.00;64.20;;;;;;6195180;23;19912;-91
2021/12/15 12:20:59;;;;;;;;;;;17.00;64.20;;;;;;6194011;23;19947;-92
2021/12/15 12:23:27;;;;;;;;;;;17.00;64.00;;;;;;6219782;23;19924;-91
2021/12/15 12:25:57;;;;;;;;;;;17.00;64.10;;;;;;6200055;23;19904;-90
2021/12/15 12:28:25;;;;;;;;;;;17.00;64.20;;;;;;6226539;23;19939;-91
2021/12/15 12:30:53;;;;;;;;;;;17.00;64.10;;;;;;6223713;23;19911;-91
2021/12/15 12:33:22;;;;;;;;;;;17.00;64.30;;;;;;6199023;23;19912;-91
2021/12/15 12:35:54;;;;;;;;;;;17.10;64.00;;;;;;6196710;23;19962;-90
2021/12/15 12:38:22;;;;;;;;;;;17.10;64.00;;;;;;6198246;23;19908;-90
2021/12/15 12:40:47;;;;;;;;;;;17.10;64.10;;;;;;6199683;23;19938;-91
2021/12/15 12:43:20;;;;;;;;;;;17.10;64.10;;;;;;6225245;23;19904;-92
2021/12/15 12:46:17;;;;;;;;;;;17.00;63.70;;;;;;6195447;23;19912;-91
2021/12/15 12:49:25;;;;;;;;;;;17.00;63.80;;;;;;6173137;23;19942;-90
2021/12/15 12:59:59;;;;;;;;;;;17.00;64.00;;;;;;6223982;23;19954;-91
2021/12/15 13:02:27;;;;;;;;;;;16.90;63.90;;;;;;6199261;23;20233;-92
2021/12/15 13:04:53;;;;;;;;;;;16.80;63.80;;;;;;6227351;23;19931;-92
2021/12/15 13:07:38;;;;;;;;;;;16.80;63.70;;;;;;6199494;23;19952;-92
2021/12/15 13:10:04;;;;;;;;;;;16.80;64.00;;;;;;6195859;23;19903;-92
2021/12/15 13:12:37;;;;;;;;;;;16.80;64.00;;;;;;6203739;23;19955;-91
2021/12/15 13:15:03;;;;;;;;;;;16.80;63.90;;;;;;6225372;23;19908;-92
2021/12/15 13:17:35;;;;;;;;;;;16.80;63.90;;;;;;6197304;23;19954;-91
2021/12/15 13:20:01;;;;;;;;;;;16.80;64.00;;;;;;6223292;23;19908;-91
2021/12/15 13:22:46;;;;;;;;;;;16.80;64.10;;;;;;6198031;23;19910;-92
2021/12/15 13:31:19;;;;;;;;;;;16.80;63.70;;;;;;6224826;23;19919;-91
2021/12/15 13:33:45;;;;;;;;;;;16.70;64.00;;;;;;6195376;23;19903;-91
2021/12/15 13:36:10;;;;;;;;;;;16.70;64.10;;;;;;6202657;23;19922;-90
2021/12/15 13:38:38;;;;;;;;;;;16.80;64.10;;;;;;6197421;23;20218;-91
2021/12/15 13:41:26;;;;;;;;;;;16.80;64.10;;;;;;6198272;23;19912;-90
2021/12/15 13:44:05;;;;;;;;;;;16.80;63.90;;;;;;6198510;23;19912;-91
2021/12/15 13:46:31;;;;;;;;;;;16.70;64.00;;;;;;6197094;23;19908;-92
2021/12/15 13:49:08;;;;;;;;;;;16.70;64.10;;;;;;6198298;23;19934;-91
2021/12/15 13:51:52;;;;;;;;;;;16.70;63.90;;;;;;6224828;23;19904;-91
2021/12/15 13:54:23;;;;;;;;;;;16.70;63.80;;;;;;6221982;23;19916;-90
2021/12/15 13:56:50;;;;;;;;;;;16.70;63.80;;;;;;6195586;23;19908;-92
2021/12/15 13:59:34;;;;;;;;;;;16.60;63.90;;;;;;6232124;23;19923;-91
2021/12/15 14:02:14;;;;;;;;;;;16.60;64.00;;;;;;6200068;23;19904;-91
2021/12/15 14:04:56;;;;;;;;;;;16.50;64.10;;;;;;6224935;23;19904;-91
2021/12/15 14:07:28;;;;;;;;;;;16.50;64.10;;;;;;6200335;23;19931;-89
2021/12/15 14:09:54;;;;;;;;;;;16.40;64.10;;;;;;6194014;23;19915;-91
2021/12/15 14:12:38;;;;;;;;;;;16.40;64.20;;;;;;6219147;23;19918;-90
2021/12/15 14:15:04;;;;;;;;;;;16.40;64.00;;;;;;6194916;23;19908;-91
2021/12/15 14:17:30;;;;;;;;;;;16.40;64.30;;;;;;6168887;23;19970;-90
2021/12/15 14:20:08;;;;;;;;;;;16.40;64.20;;;;;;6193804;23;19912;-90
2021/12/15 14:22:33;;;;;;;;;;;16.40;64.20;;;;;;6193393;23;19939;-90
2021/12/15 14:25:02;;;;;;;;;;;16.40;64.10;;;;;;6193277;23;19908;-90
2021/12/15 14:27:27;;;;;;;;;;;16.50;64.20;;;;;;6221853;23;19983;-91
2021/12/15 14:29:53;;;;;;;;;;;16.50;64.20;;;;;;6195604;23;19908;-91
2021/12/15 14:32:18;;;;;;;;;;;16.50;64.20;;;;;;6195905;23;19911;-91
2021/12/15 14:34:46;;;;;;;;;;;16.50;64.20;;;;;;6220769;23;20272;-91
2021/12/15 14:37:13;;;;;;;;;;;16.50;64.20;;;;;;6194452;23;19908;-90
2021/12/15 14:39:39;;;;;;;;;;;16.50;64.20;;;;;;6193511;23;19935;-91
2021/12/15 14:42:25;;;;;;;;;;;16.50;64.20;;;;;;6193831;23;19904;-90
2021/12/15 14:44:52;;;;;;;;;;;16.50;64.20;;;;;;6218891;23;19908;-92
2021/12/15 14:47:21;;;;;;;;;;;16.50;64.00;;;;;;6220472;23;19920;-92
2021/12/15 14:49:50;;;;;;;;;;;16.50;63.90;;;;;;6220462;23;19904;-90
2021/12/15 14:52:17;;;;;;;;;;;16.50;64.00;;;;;;6220070;23;19987;-90
2021/12/15 14:54:44;;;;;;;;;;;16.40;63.70;;;;;;6193708;23;19931;-90
2021/12/15 14:57:11;;;;;;;;;;;16.40;63.70;;;;;;6193370;23;19904;-91
2021/12/15 14:59:50;;;;;;;;;;;16.40;63.90;;;;;;6194560;23;19912;-91
2021/12/15 15:02:33;;;;;;;;;;;16.40;63.70;;;;;;6221023;23;20286;-91
2021/12/15 15:05:04;;;;;;;;;;;16.30;63.60;;;;;;6221936;23;19979;-90
2021/12/15 15:07:32;;;;;;;;;;;16.30;63.70;;;;;;6195598;23;19908;-91
2021/12/15 15:09:59;;;;;;;;;;;16.30;63.90;;;;;;6195685;23;20273;-92
2021/12/15 15:12:25;;;;;;;;;;;16.30;63.80;;;;;;6221433;23;19912;-91
2021/12/15 15:15:00;;;;;;;;;;;16.30;63.60;;;;;;6195107;23;19919;-91
2021/12/15 15:17:28;;;;;;;;;;;16.30;63.60;;;;;;6194720;23;19912;-91
2021/12/15 15:19:56;;;;;;;;;;;16.20;63.80;;;;;;6196359;23;19915;-91
2021/12/15 15:22:23;;;;;;;;;;;16.20;63.90;;;;;;6195289;23;19944;-91
2021/12/15 15:24:50;;;;;;;;;;;16.20;63.70;;;;;;6196875;23;19915;-91
2021/12/15 15:27:16;;;;;;;;;;;16.20;63.80;;;;;;6194289;23;19908;-93
2021/12/15 15:29:44;;;;;;;;;;;16.20;63.90;;;;;;6197088;23;19957;-92
2021/12/15 15:32:21;;;;;;;;;;;16.20;63.80;;;;;;6222277;23;19904;-91
2021/12/15 15:34:47;;;;;;;;;;;16.20;63.90;;;;;;6195319;23;19966;-91
2021/12/15 15:37:15;;;;;;;;;;;16.20;63.80;;;;;;6192788;23;19912;-91
2021/12/15 15:39:41;;;;;;;;;;;16.20;63.70;;;;;;6193690;23;20346;-91
2021/12/15 15:42:07;;;;;;;;;;;16.20;63.80;;;;;;6193864;23;19904;-91
2021/12/15 15:44:35;;;;;;;;;;;16.20;63.90;;;;;;6193533;23;19942;-92
2021/12/15 15:47:01;;;;;;;;;;;16.20;63.70;;;;;;6219180;23;19904;-91
2021/12/15 15:49:26;;;;;;;;;;;16.20;63.80;;;;;;6194373;23;19931;-91
2021/12/15 15:51:52;;;;;;;;;;;16.20;63.90;;;;;;6220777;23;19912;-90
2021/12/15 15:54:21;;;;;;;;;;;16.20;63.80;;;;;;6223962;23;20284;-90
2021/12/15 15:56:47;;;;;;;;;;;16.20;63.70;;;;;;6197265;23;19991;-91
2021/12/15 15:59:14;;;;;;;;;;;16.20;63.70;;;;;;6196128;23;19961;-91